« 定点 富山空港 2024/4/11 thu | トップページ | 定点 富山空港 2024/4/14 sun »

2024/04/13

定点 富山空港他 2024/4/13 sat

昨日から半島系の春チャーターが始まりました。トップバッターに大韓航空。本体が来るのは、何年ぶりだろう?

RJNT 130100Z VRB05KT CAVOK 18/07 Q1019

20240413_0higashiyatsuo_00hl8371

今日は、アシアナのチャーターでしたが、すっかり忘れていて、桜を見に来てしまいました。でも、ここから桜越にファイナルの機体が見えました。

20240413_0higashiyatsuo_01jr1028

1028D D201 桜は、今が最盛期

20240413_0higashiyatsuo_02jr1028

先日見たハクモクレンは散って、赤木蓮が目立っていました。

20240413_rjnt_03b1372

CHH439 ZBAA-RJAA B-1372 B737-84P

先行するEOKの雲を追って、成田へ

RJNT 130200Z 36006KT 320V040 CAVOK 19/09 Q1018

20240413_rjnt_04ja65an

さて河原に来ると、RNAV02 お天気が良いので、OWARAでもくっきり。

20240413_rjnt_05ja65an

川面も、きらきら綺麗に輝いています。

20240413_rjnt_06ja65an

ANA315 RJTT-RJNT JA65AN B737-881

20240413_rjnt_07ja65an
20240413_rjnt_08hl8371

315の着陸を待ってラインナップ

20240413_rjnt_09hl8371

久しぶりのお見合い

20240413_rjnt_10ja65an
20240413_rjnt_11hl8371

AAR1273 RJNT-RKSI HL8371 A321-251NX

次のアシアナ便は、16日火曜日

RJNT 130300Z 36006KT 320V060 CAVOK 19/08 Q1018

20240413_rjnt_12ja65an
20240413_rjnt_13ja65an

ANA316 RJNT-RJTT JA65AN B737-881

20240413_rjnt_14ja78an

こちらは、タイトなサークリング A席は、楽しかっただろうな。

20240413_rjnt_15ja78an

ショートファイナルで、きっちりアラインして

20240413_rjnt_16ja78an

ANA1182 RJCC-RJNT JA78AN B737-881

20240413_rjnt_17ja78an

RJNT 130400Z 36007KT 330V050 CAVOK 19/08 Q1017

20240413_rjnt_18ja78an

離陸は、上海さん待ち

20240413_rjnt_19b5261

ライトブレイク

20240413_rjnt_20ja78an

ANA1181 RJNT-RJTT JA78AN B737-881

20240413_rjnt_21b5261

こちらもお手本のようなファイナル

20240413_rjnt_22b5261
20240413_rjnt_23b5261

CSH825 ZSPD-RJNT B-5261 B737-76D

20240413_rjnt_24b5261
20240413_rjnt_25b5261
20240413_rjnt_26ja119w

お昼を過ぎて、今日も訓練です。

20240413_rjnt_27ja119w

JA119W↑ AW139 富山県消防防災

お隣石川防災さんの新しい機体が、いよいよ登録されました。

RJNT 130500Z 35009KT CAVOK 20/08 Q1017

20240413_rjnt_28b5261
20240413_rjnt_29b5261

CSH826 RJNT-ZSPD B-5261 B737-76D

20240413_rjnt_30b5261

時間帯を早くしたおかげで、EDCTで待たされることが少なくなりました。

20240413_ziwase_31dongyu

今日は、最後に難破船 DONG YU

20240413_ziwase_32dongyu

「世界で最も美しい湾クラブ」

|

« 定点 富山空港 2024/4/11 thu | トップページ | 定点 富山空港 2024/4/14 sun »

うみ」カテゴリの記事

てつ」カテゴリの記事

富山空港」カテゴリの記事

コメント

コメントを書く



(ウェブ上には掲載しません)


コメントは記事投稿者が公開するまで表示されません。



« 定点 富山空港 2024/4/11 thu | トップページ | 定点 富山空港 2024/4/14 sun »